Time;durP1;ratioP1;P1;durP2;ratioP2;P2;SDS_P1;SDS_P2;PMS_P1;PMS_P2;Temp;Humidity;BMP_temperature;BMP_pressure;BME280_temperature;BME280_humidity;BME280_pressure;Samples;Min_cycle;Max_cycle;Signal;HPM_P1;HPM_P2
2021/07/22 00:00:06;;;;;;;23.73;15.00;;;17.60;97.90;;;;;;5036027;28;20060;-68
2021/07/22 00:02:32;;;;;;;21.30;14.07;;;17.50;98.00;;;;;;5034634;28;20037;-68
2021/07/22 00:04:57;;;;;;;23.45;14.50;;;17.50;98.10;;;;;;5016797;28;20591;-68
2021/07/22 00:07:23;;;;;;;23.17;13.68;;;17.40;98.20;;;;;;5035303;28;20037;-68
2021/07/22 00:09:48;;;;;;;21.73;14.25;;;17.40;98.30;;;;;;5033121;28;20075;-68
2021/07/22 00:12:14;;;;;;;23.42;14.23;;;17.40;98.40;;;;;;5032260;28;20050;-69
2021/07/22 00:14:41;;;;;;;22.95;14.63;;;17.30;98.40;;;;;;5036284;28;20472;-68
2021/07/22 00:17:07;;;;;;;25.48;14.55;;;17.30;98.50;;;;;;5035661;28;20038;-68
2021/07/22 00:19:34;;;;;;;19.83;13.75;;;17.30;98.60;;;;;;5035250;28;20033;-68
2021/07/22 00:21:59;;;;;;;20.52;14.07;;;17.20;98.70;;;;;;5034317;28;20083;-68
2021/07/22 00:24:26;;;;;;;28.88;15.40;;;17.10;98.70;;;;;;5034471;28;20460;-68
2021/07/22 00:26:52;;;;;;;19.83;12.45;;;17.10;98.90;;;;;;5033345;28;20681;-69
2021/07/22 00:29:18;;;;;;;23.05;13.48;;;17.00;99.00;;;;;;5030144;28;20551;-68
2021/07/22 00:31:44;;;;;;;23.00;14.80;;;16.90;99.20;;;;;;5032855;28;20109;-68
2021/07/22 00:34:09;;;;;;;24.55;14.15;;;16.90;99.30;;;;;;5034695;28;20029;-68
2021/07/22 00:36:35;;;;;;;25.48;14.73;;;16.80;99.40;;;;;;5035564;28;20073;-68
2021/07/22 00:39:00;;;;;;;24.63;13.50;;;16.70;99.50;;;;;;5032969;28;20450;-68
2021/07/22 00:41:26;;;;;;;21.80;14.27;;;16.70;99.60;;;;;;5033925;28;20384;-68
2021/07/22 00:43:51;;;;;;;21.70;14.40;;;16.70;99.70;;;;;;5034198;28;20495;-68
2021/07/22 00:46:17;;;;;;;22.40;14.65;;;16.70;99.80;;;;;;5034089;28;20029;-68
2021/07/22 00:48:43;;;;;;;23.52;13.55;;;16.60;99.90;;;;;;5033055;28;20025;-68
2021/07/22 00:51:08;;;;;;;23.98;14.73;;;16.60;99.90;;;;;;5035182;28;20032;-68
2021/07/22 00:53:35;;;;;;;26.95;15.50;;;16.60;99.90;;;;;;5032800;28;20037;-68
2021/07/22 00:56:01;;;;;;;23.02;14.13;;;16.50;99.90;;;;;;5033391;28;20025;-68
2021/07/22 00:58:27;;;;;;;20.00;13.55;;;16.50;99.90;;;;;;5034202;28;20021;-68
2021/07/22 01:00:53;;;;;;;20.27;12.68;;;16.50;99.90;;;;;;5030786;28;20022;-68
2021/07/22 01:03:19;;;;;;;20.52;13.65;;;16.40;99.90;;;;;;5034737;28;20025;-68
2021/07/22 01:05:44;;;;;;;19.63;12.25;;;16.40;99.90;;;;;;5034914;28;20030;-68
2021/07/22 01:08:10;;;;;;;21.38;13.00;;;16.40;99.90;;;;;;5032794;28;20533;-68
2021/07/22 01:10:35;;;;;;;20.95;12.70;;;16.30;99.90;;;;;;5035231;28;20105;-68
2021/07/22 01:13:01;;;;;;;20.92;13.52;;;16.30;99.90;;;;;;5031907;28;20094;-68
2021/07/22 01:15:27;;;;;;;23.55;13.35;;;16.20;99.90;;;;;;5033020;28;20030;-68
2021/07/22 01:17:52;;;;;;;21.10;13.60;;;16.20;99.90;;;;;;5034224;28;20033;-68
2021/07/22 01:20:19;;;;;;;23.42;14.15;;;16.10;99.90;;;;;;5032013;28;20466;-69
2021/07/22 01:22:46;;;;;;;25.65;13.98;;;16.10;99.90;;;;;;5029842;28;20026;-68
2021/07/22 01:25:13;;;;;;;22.60;12.82;;;16.10;99.90;;;;;;5034340;28;20032;-68
2021/07/22 01:27:39;;;;;;;23.17;13.63;;;16.10;99.90;;;;;;5032612;28;20029;-66
2021/07/22 01:30:06;;;;;;;21.35;14.20;;;16.10;99.90;;;;;;5028620;28;20022;-68
2021/07/22 01:32:31;;;;;;;24.25;14.52;;;16.00;99.90;;;;;;5027231;28;20048;-67
2021/07/22 01:34:57;;;;;;;19.63;13.15;;;16.00;99.90;;;;;;5032987;28;20484;-67
2021/07/22 01:37:22;;;;;;;25.27;13.73;;;16.00;99.90;;;;;;5032711;28;20030;-67
2021/07/22 01:39:48;;;;;;;20.60;12.45;;;16.00;99.90;;;;;;5032209;28;20040;-67
2021/07/22 01:42:13;;;;;;;23.90;14.02;;;16.00;99.90;;;;;;5034125;28;20041;-67
2021/07/22 01:44:39;;;;;;;26.95;15.07;;;15.90;99.90;;;;;;5033564;28;20060;-67
2021/07/22 01:47:05;;;;;;;25.55;15.23;;;15.90;99.90;;;;;;5031430;28;20508;-67
2021/07/22 01:49:31;;;;;;;25.92;14.60;;;15.90;99.90;;;;;;5033192;28;20084;-67
2021/07/22 01:51:58;;;;;;;28.48;16.00;;;15.80;99.90;;;;;;5031702;28;20022;-67
2021/07/22 01:54:24;;;;;;;28.10;16.73;;;15.80;99.90;;;;;;5034247;28;20041;-67
2021/07/22 01:56:50;;;;;;;25.08;14.82;;;15.80;99.90;;;;;;5033938;28;20033;-67
2021/07/22 01:59:15;;;;;;;27.15;16.80;;;15.80;99.90;;;;;;5032441;28;20117;-67
2021/07/22 02:01:41;;;;;;;28.13;17.23;;;15.80;99.90;;;;;;5028929;28;20480;-68
2021/07/22 02:04:06;;;;;;;25.67;15.68;;;15.80;99.90;;;;;;5033657;28;20030;-67
2021/07/22 02:06:32;;;;;;;26.77;15.55;;;15.80;99.90;;;;;;5033229;28;20052;-67
2021/07/22 02:08:57;;;;;;;30.40;16.38;;;15.80;99.90;;;;;;5033234;28;20357;-67
2021/07/22 02:11:23;;;;;;;21.48;13.48;;;15.80;99.90;;;;;;5033331;28;20034;-67
2021/07/22 02:13:49;;;;;;;24.08;14.25;;;15.80;99.90;;;;;;5034083;28;20132;-67
2021/07/22 02:16:15;;;;;;;20.00;12.30;;;15.80;99.90;;;;;;5028661;28;20109;-67
2021/07/22 02:18:41;;;;;;;27.73;15.40;;;15.80;99.90;;;;;;5032777;28;20086;-67
2021/07/22 02:21:09;;;;;;;27.20;15.63;;;15.70;99.90;;;;;;5033477;28;20030;-67
2021/07/22 02:23:35;;;;;;;28.17;15.50;;;15.70;99.90;;;;;;5032914;28;20057;-67
2021/07/22 02:26:05;;;;;;;25.98;15.40;;;15.70;99.90;;;;;;5027608;28;20064;-67
2021/07/22 02:28:30;;;;;;;23.58;14.38;;;15.70;99.90;;;;;;5027891;28;20114;-67
2021/07/22 02:30:56;;;;;;;22.98;13.05;;;15.60;99.90;;;;;;5031183;28;20101;-67
2021/07/22 02:33:21;;;;;;;22.38;14.07;;;15.60;99.90;;;;;;5032736;28;20488;-67
2021/07/22 02:35:47;;;;;;;28.73;14.77;;;15.60;99.90;;;;;;5033279;28;20108;-67
2021/07/22 02:38:12;;;;;;;24.70;14.48;;;15.70;99.90;;;;;;5032185;28;20065;-67
2021/07/22 02:40:39;;;;;;;28.70;15.80;;;15.70;99.90;;;;;;5033012;28;20369;-67
2021/07/22 02:43:05;;;;;;;27.88;15.32;;;15.70;99.90;;;;;;5031450;28;20037;-67
2021/07/22 02:45:30;;;;;;;24.75;14.50;;;15.70;99.90;;;;;;5025864;28;20022;-67
2021/07/22 02:47:56;;;;;;;26.75;15.50;;;15.70;99.90;;;;;;5032120;28;20028;-67
2021/07/22 02:50:22;;;;;;;28.40;16.77;;;15.70;99.90;;;;;;5013575;28;20037;-67
2021/07/22 02:52:47;;;;;;;30.75;17.77;;;15.70;99.90;;;;;;5025900;28;20029;-67
2021/07/22 02:55:13;;;;;;;28.75;17.20;;;15.70;99.90;;;;;;5032109;28;20048;-67
2021/07/22 02:57:39;;;;;;;31.02;17.60;;;15.70;99.90;;;;;;5029407;28;20052;-67
2021/07/22 03:00:06;;;;;;;33.97;17.75;;;15.70;99.90;;;;;;5031344;28;20030;-67
2021/07/22 03:02:32;;;;;;;36.30;20.23;;;15.70;99.90;;;;;;5031744;28;20035;-67
2021/07/22 03:04:57;;;;;;;34.40;20.80;;;15.70;99.90;;;;;;5030383;28;20021;-67
2021/07/22 03:07:23;;;;;;;42.10;21.45;;;15.70;99.90;;;;;;5030643;28;20111;-67
2021/07/22 03:09:49;;;;;;;36.78;21.45;;;15.70;99.90;;;;;;5032192;28;20041;-67
2021/07/22 03:12:14;;;;;;;37.70;23.23;;;15.70;99.90;;;;;;5026424;28;20127;-67
2021/07/22 03:14:42;;;;;;;36.65;21.60;;;15.80;99.90;;;;;;5030411;28;20042;-67
2021/07/22 03:17:07;;;;;;;34.30;20.50;;;15.70;99.90;;;;;;5031522;28;20376;-67
2021/07/22 03:19:33;;;;;;;35.22;21.20;;;15.80;99.90;;;;;;5031515;28;20029;-67
2021/07/22 03:21:59;;;;;;;34.58;19.67;;;15.80;99.90;;;;;;5031536;28;20104;-67
2021/07/22 03:24:27;;;;;;;37.38;21.17;;;15.80;99.90;;;;;;5029588;28;21032;-67
2021/07/22 03:26:53;;;;;;;38.97;23.27;;;15.80;99.90;;;;;;5031520;28;20400;-67
2021/07/22 03:29:18;;;;;;;40.78;22.48;;;15.80;99.90;;;;;;5023036;28;20022;-67
2021/07/22 03:31:44;;;;;;;36.70;21.27;;;15.80;99.90;;;;;;5031011;28;20034;-67
2021/07/22 03:34:10;;;;;;;35.85;19.77;;;15.70;99.90;;;;;;5032690;28;20491;-67
2021/07/22 03:36:35;;;;;;;38.78;22.92;;;15.70;99.90;;;;;;5030749;28;20022;-67
2021/07/22 03:39:01;;;;;;;44.92;22.23;;;15.70;99.90;;;;;;5031298;28;20392;-67
2021/07/22 03:41:27;;;;;;;40.38;22.55;;;15.70;99.90;;;;;;5029964;28;20040;-67
2021/07/22 03:43:52;;;;;;;33.90;21.08;;;15.70;99.90;;;;;;5031488;28;20028;-67
2021/07/22 03:46:18;;;;;;;37.05;20.38;;;15.70;99.90;;;;;;5031212;28;20037;-67
2021/07/22 03:48:45;;;;;;;38.05;21.20;;;15.70;99.90;;;;;;5032118;28;20521;-67
2021/07/22 03:51:13;;;;;;;32.67;19.48;;;15.60;99.90;;;;;;5032341;28;20032;-67
2021/07/22 03:53:38;;;;;;;40.83;20.63;;;15.70;99.90;;;;;;5029546;28;20344;-67
2021/07/22 03:56:04;;;;;;;37.35;20.98;;;15.60;99.90;;;;;;5030855;28;20037;-67
2021/07/22 03:58:30;;;;;;;34.50;20.20;;;15.60;99.90;;;;;;5031156;28;20087;-67
2021/07/22 04:00:57;;;;;;;34.88;20.10;;;15.60;99.90;;;;;;5030578;28;20559;-67
2021/07/22 04:03:26;;;;;;;33.80;20.00;;;15.70;99.90;;;;;;5028346;28;20025;-67
2021/07/22 04:05:52;;;;;;;35.35;18.42;;;15.70;99.90;;;;;;5031703;28;20036;-67
2021/07/22 04:08:18;;;;;;;34.55;19.25;;;15.70;99.90;;;;;;5031071;28;20387;-67
2021/07/22 04:10:43;;;;;;;36.25;19.20;;;15.70;99.90;;;;;;5030308;28;20071;-67
2021/07/22 04:13:09;;;;;;;36.17;18.70;;;15.70;99.90;;;;;;5031536;28;20111;-67
2021/07/22 04:15:34;;;;;;;39.35;19.65;;;15.70;99.90;;;;;;5031487;28;20103;-67
2021/07/22 04:18:00;;;;;;;34.85;19.15;;;15.70;99.90;;;;;;5035297;28;20537;-67
2021/07/22 04:20:28;;;;;;;37.35;19.75;;;15.70;99.90;;;;;;5035936;28;20037;-67
2021/07/22 04:22:57;;;;;;;31.30;17.98;;;15.70;99.90;;;;;;5034899;28;20087;-67
2021/07/22 04:25:23;;;;;;;32.95;18.35;;;15.70;99.90;;;;;;5030317;28;20025;-67
2021/07/22 04:27:48;;;;;;;33.13;18.65;;;15.70;99.90;;;;;;5031435;28;20034;-67
2021/07/22 04:30:14;;;;;;;35.85;18.52;;;15.70;99.90;;;;;;5033278;28;20444;-67
2021/07/22 04:32:39;;;;;;;36.00;19.55;;;15.70;99.90;;;;;;5031637;28;20029;-67
2021/07/22 04:35:08;;;;;;;33.65;18.40;;;15.80;99.90;;;;;;5030771;28;20040;-67
2021/07/22 04:37:37;;;;;;;32.40;18.45;;;15.80;99.90;;;;;;5026916;28;20026;-67
2021/07/22 04:40:06;;;;;;;30.55;18.60;;;15.80;99.90;;;;;;5027137;28;20055;-67
2021/07/22 04:42:35;;;;;;;31.65;17.88;;;15.80;99.90;;;;;;5027721;28;20026;-67
2021/07/22 04:45:00;;;;;;;32.50;17.67;;;15.80;99.90;;;;;;5030928;28;20022;-67
2021/07/22 04:47:26;;;;;;;30.30;17.98;;;15.90;99.90;;;;;;5031469;28;20336;-67
2021/07/22 04:49:51;;;;;;;32.78;18.77;;;15.90;99.90;;;;;;5030063;28;20472;-67
2021/07/22 04:52:17;;;;;;;36.20;19.27;;;15.90;99.90;;;;;;5030295;28;20029;-67
2021/07/22 04:54:43;;;;;;;34.25;19.95;;;16.00;99.90;;;;;;5031340;28;20387;-66
2021/07/22 04:57:08;;;;;;;32.70;18.50;;;16.00;99.90;;;;;;5034197;28;20029;-67
2021/07/22 04:59:34;;;;;;;30.65;18.40;;;16.00;99.90;;;;;;5032171;28;20017;-68
2021/07/22 05:02:00;;;;;;;32.30;18.17;;;16.10;99.90;;;;;;5031138;28;20037;-68
2021/07/22 05:04:25;;;;;;;31.20;18.55;;;16.10;99.90;;;;;;5015229;28;20145;-68
2021/07/22 05:06:51;;;;;;;33.15;18.63;;;16.20;99.90;;;;;;5023693;28;20045;-68
2021/07/22 05:09:16;;;;;;;29.60;17.48;;;16.30;99.90;;;;;;5029571;28;20021;-68
2021/07/22 05:11:42;;;;;;;32.13;17.75;;;16.20;99.90;;;;;;5025314;28;20033;-68
2021/07/22 05:14:07;;;;;;;28.42;17.80;;;16.30;99.90;;;;;;5025335;28;20045;-68
2021/07/22 05:16:34;;;;;;;29.85;18.25;;;16.30;99.90;;;;;;5027467;28;20116;-68
2021/07/22 05:18:59;;;;;;;28.33;17.70;;;16.30;99.90;;;;;;5032240;28;20029;-68
2021/07/22 05:21:25;;;;;;;25.88;15.82;;;16.40;99.90;;;;;;5030071;28;20088;-68
2021/07/22 05:23:50;;;;;;;24.60;16.02;;;16.60;99.90;;;;;;5028480;28;20061;-68
2021/07/22 05:26:16;;;;;;;23.85;14.57;;;16.80;99.90;;;;;;5033439;28;20025;-68
2021/07/22 05:28:42;;;;;;;26.55;15.32;;;17.00;99.90;;;;;;5033424;28;20035;-68
2021/07/22 05:31:11;;;;;;;25.40;17.48;;;17.20;99.90;;;;;;5028808;28;20017;-68
2021/07/22 05:33:39;;;;;;;25.92;16.13;;;17.40;99.90;;;;;;5021492;28;20061;-68
2021/07/22 05:36:08;;;;;;;22.85;14.82;;;17.50;99.90;;;;;;5034005;28;20043;-68
2021/07/22 05:38:36;;;;;;;24.85;15.82;;;17.70;99.90;;;;;;5025221;28;20033;-68
2021/07/22 05:41:02;;;;;;;23.65;13.23;;;17.80;99.90;;;;;;5023731;28;20113;-68
2021/07/22 05:43:28;;;;;;;21.70;13.90;;;17.90;99.90;;;;;;5030548;28;20030;-68
2021/07/22 05:45:54;;;;;;;20.35;13.85;;;18.10;99.90;;;;;;5031482;28;20028;-66
2021/07/22 05:48:20;;;;;;;21.90;13.75;;;18.20;99.90;;;;;;5021766;28;20179;-66
2021/07/22 05:50:46;;;;;;;25.35;14.77;;;18.30;99.90;;;;;;5025478;28;20045;-66
2021/07/22 05:53:12;;;;;;;21.38;14.93;;;18.50;99.90;;;;;;5032395;28;20087;-66
2021/07/22 05:55:37;;;;;;;20.23;14.70;;;18.50;99.90;;;;;;5030366;28;20068;-66
2021/07/22 05:58:03;;;;;;;24.05;15.25;;;18.50;99.90;;;;;;5026637;28;20116;-67
2021/07/22 06:00:29;;;;;;;23.15;14.98;;;18.60;99.90;;;;;;5027051;28;20489;-66
2021/07/22 06:02:54;;;;;;;24.38;15.25;;;18.60;99.90;;;;;;5024872;28;20025;-67
2021/07/22 06:05:20;;;;;;;21.27;14.88;;;18.70;99.60;;;;;;5032611;28;20029;-67
2021/07/22 06:07:47;;;;;;;25.80;16.85;;;18.60;99.60;;;;;;5032959;28;20064;-68
2021/07/22 06:10:26;;;;;;;21.80;15.20;;;18.60;99.50;;;;;;5029250;28;20729;-70
2021/07/22 06:12:54;;;;;;;27.17;16.75;;;18.60;99.50;;;;;;5014294;28;20108;-68
2021/07/22 06:15:20;;;;;;;24.20;15.52;;;18.70;99.30;;;;;;5007166;28;20036;-68
2021/07/22 06:17:46;;;;;;;24.98;15.70;;;18.70;99.00;;;;;;5029569;28;20034;-68
2021/07/22 06:20:11;;;;;;;24.38;16.27;;;18.70;98.80;;;;;;5020491;28;20495;-67
2021/07/22 06:22:38;;;;;;;27.98;17.98;;;18.70;98.60;;;;;;5031790;28;20041;-68
2021/07/22 06:25:05;;;;;;;21.88;15.45;;;18.70;98.40;;;;;;5028541;28;20026;-68
2021/07/22 06:27:31;;;;;;;25.02;15.95;;;18.70;98.50;;;;;;5024847;28;20483;-68
2021/07/22 06:30:00;;;;;;;25.90;15.27;;;18.70;98.30;;;;;;5029844;28;20026;-68
2021/07/22 06:32:26;;;;;;;21.77;13.57;;;18.80;98.30;;;;;;5033132;28;20033;-68
2021/07/22 06:34:52;;;;;;;24.05;15.23;;;18.80;98.20;;;;;;5032280;28;20051;-68
2021/07/22 06:37:17;;;;;;;20.92;15.27;;;18.90;98.10;;;;;;5030902;28;20108;-68
2021/07/22 06:39:43;;;;;;;21.92;15.10;;;19.00;98.00;;;;;;5029536;28;20192;-68
2021/07/22 06:42:08;;;;;;;27.45;15.95;;;19.20;97.70;;;;;;5031828;28;20147;-68
2021/07/22 06:44:34;;;;;;;20.02;14.30;;;19.20;97.60;;;;;;5031649;28;20100;-68
2021/07/22 06:47:00;;;;;;;22.05;14.73;;;19.30;97.50;;;;;;5030711;28;20487;-68
2021/07/22 06:49:26;;;;;;;21.75;14.32;;;19.50;97.40;;;;;;5031055;28;20017;-68
2021/07/22 06:51:52;;;;;;;18.52;11.98;;;19.60;97.20;;;;;;5033110;28;20113;-68
2021/07/22 06:54:18;;;;;;;20.65;15.15;;;19.70;97.00;;;;;;5029404;28;20029;-68
2021/07/22 06:56:44;;;;;;;23.25;14.20;;;19.70;96.80;;;;;;5017888;28;20484;-68
2021/07/22 06:59:09;;;;;;;19.40;13.15;;;19.80;96.30;;;;;;5030248;28;20034;-69
2021/07/22 07:01:35;;;;;;;20.95;13.68;;;19.90;96.20;;;;;;5030953;28;20116;-69
2021/07/22 07:04:02;;;;;;;21.98;13.73;;;19.90;96.00;;;;;;5032864;28;20484;-69
2021/07/22 07:06:28;;;;;;;21.05;12.45;;;19.90;95.90;;;;;;5031880;28;20032;-69
2021/07/22 07:08:54;;;;;;;20.45;14.48;;;20.00;95.90;;;;;;5029650;28;20030;-69
2021/07/22 07:11:20;;;;;;;22.63;14.60;;;20.10;95.70;;;;;;5032417;28;20451;-69
2021/07/22 07:13:45;;;;;;;22.33;14.18;;;20.10;95.50;;;;;;5031465;28;20049;-69
2021/07/22 07:16:11;;;;;;;33.03;14.10;;;20.20;95.50;;;;;;5032956;28;20032;-69
2021/07/22 07:18:36;;;;;;;17.55;12.15;;;20.20;95.30;;;;;;5031906;28;20026;-66
2021/07/22 07:21:06;;;;;;;19.52;14.20;;;20.30;95.60;;;;;;5031667;28;20025;-66
2021/07/22 07:23:34;;;;;;;19.73;13.27;;;20.40;95.00;;;;;;5030503;28;20369;-66
2021/07/22 07:26:01;;;;;;;23.23;14.05;;;20.40;94.90;;;;;;5030765;28;20040;-66
2021/07/22 07:28:26;;;;;;;21.58;13.95;;;20.40;94.70;;;;;;5030166;28;20081;-66
2021/07/22 07:30:53;;;;;;;18.25;12.40;;;20.40;94.70;;;;;;5031647;28;20168;-67
2021/07/22 07:33:20;;;;;;;19.65;13.35;;;20.50;94.70;;;;;;5032816;28;20018;-67
2021/07/22 07:35:46;;;;;;;17.45;11.98;;;20.60;94.50;;;;;;5032452;28;20026;-67
2021/07/22 07:38:12;;;;;;;19.65;13.05;;;20.70;94.50;;;;;;5029568;28;20488;-67
2021/07/22 07:40:37;;;;;;;19.05;12.63;;;20.70;94.00;;;;;;5029825;28;20037;-67
2021/07/22 07:43:03;;;;;;;17.75;12.70;;;20.80;94.00;;;;;;5031265;28;20029;-67
2021/07/22 07:45:29;;;;;;;19.85;12.57;;;20.80;93.70;;;;;;5021821;28;20026;-67
2021/07/22 07:47:55;;;;;;;18.23;12.05;;;20.90;93.60;;;;;;5027603;28;20026;-67
2021/07/22 07:50:21;;;;;;;16.40;11.75;;;21.00;93.40;;;;;;5033781;28;20128;-67
2021/07/22 07:52:46;;;;;;;16.98;11.32;;;21.20;93.00;;;;;;5032957;28;20087;-67
2021/07/22 07:55:13;;;;;;;17.95;11.88;;;21.30;92.90;;;;;;5035618;28;20040;-67
2021/07/22 07:57:39;;;;;;;16.50;11.27;;;21.40;92.80;;;;;;5036823;28;20025;-68
2021/07/22 08:00:06;;;;;;;14.48;10.52;;;21.60;92.30;;;;;;5035526;28;20033;-67
2021/07/22 08:02:32;;;;;;;19.50;10.88;;;21.90;91.90;;;;;;5034752;28;20128;-67
2021/07/22 08:04:57;;;;;;;16.42;10.90;;;22.00;92.00;;;;;;5031855;28;20100;-67
2021/07/22 08:07:26;;;;;;;14.57;10.40;;;22.00;91.30;;;;;;5034156;28;20036;-67
2021/07/22 08:09:52;;;;;;;14.80;10.35;;;22.10;91.40;;;;;;5034817;28;20490;-67
2021/07/22 08:12:19;;;;;;;15.60;11.18;;;22.30;91.40;;;;;;5034008;28;20053;-67
2021/07/22 08:14:45;;;;;;;16.70;10.18;;;22.30;90.70;;;;;;5032934;28;20039;-67
2021/07/22 08:17:15;;;;;;;16.13;11.02;;;22.20;90.90;;;;;;5035061;28;20100;-67
2021/07/22 08:19:41;;;;;;;16.25;11.00;;;22.10;90.80;;;;;;5034610;28;20025;-67
2021/07/22 08:22:06;;;;;;;17.05;11.93;;;22.10;90.90;;;;;;5026368;28;20028;-68
2021/07/22 08:24:32;;;;;;;17.05;10.48;;;22.00;90.80;;;;;;5035847;28;20384;-68
2021/07/22 08:26:57;;;;;;;15.95;11.75;;;21.90;90.90;;;;;;5032881;28;20044;-69
2021/07/22 08:29:23;;;;;;;18.80;11.52;;;21.70;90.90;;;;;;5035729;28;20040;-69
2021/07/22 08:31:48;;;;;;;17.85;10.75;;;21.70;91.00;;;;;;5034195;28;20026;-68
2021/07/22 08:34:16;;;;;;;13.13;9.45;;;21.60;90.90;;;;;;5034097;28;20072;-68
2021/07/22 08:36:42;;;;;;;15.18;9.95;;;21.60;91.00;;;;;;5032378;28;20104;-68
2021/07/22 08:39:08;;;;;;;15.38;10.00;;;21.90;90.80;;;;;;5034399;28;20167;-68
2021/07/22 08:41:34;;;;;;;15.60;9.20;;;22.20;90.50;;;;;;5033246;28;20531;-68
2021/07/22 08:44:02;;;;;;;14.10;9.93;;;22.40;89.50;;;;;;5034242;28;20082;-68
2021/07/22 08:46:28;;;;;;;13.05;9.75;;;22.70;88.60;;;;;;5033460;28;20028;-68
2021/07/22 08:48:54;;;;;;;12.43;9.63;;;22.80;87.60;;;;;;5033188;28;20025;-68
2021/07/22 08:51:21;;;;;;;13.15;8.38;;;22.80;86.30;;;;;;5034366;28;20124;-68
2021/07/22 08:53:47;;;;;;;12.85;8.82;;;22.80;86.40;;;;;;5033535;28;20037;-68
2021/07/22 08:56:13;;;;;;;12.63;9.13;;;22.70;86.50;;;;;;5032270;28;20060;-68
2021/07/22 08:58:39;;;;;;;9.50;7.13;;;22.60;86.70;;;;;;5030241;28;20025;-68
2021/07/22 09:01:09;;;;;;;12.13;8.05;;;22.40;86.70;;;;;;5029161;28;20056;-68
2021/07/22 09:03:35;;;;;;;10.30;7.60;;;22.30;86.70;;;;;;5033104;28;20025;-68
2021/07/22 09:06:11;;;;;;;13.02;8.25;;;22.20;87.30;;;;;;5027983;28;20032;-68
2021/07/22 09:08:36;;;;;;;10.45;8.00;;;22.20;87.00;;;;;;5032138;28;20030;-68
2021/07/22 09:11:06;;;;;;;8.23;6.30;;;22.20;86.30;;;;;;5033937;28;20029;-68
2021/07/22 09:13:32;;;;;;;10.57;6.60;;;22.30;86.50;;;;;;5015404;28;20050;-68
2021/07/22 09:15:57;;;;;;;10.90;6.63;;;22.40;86.60;;;;;;5029157;28;20033;-68
2021/07/22 09:18:25;;;;;;;9.25;6.18;;;22.50;85.30;;;;;;5034181;28;20033;-68
2021/07/22 09:20:53;;;;;;;8.75;6.88;;;22.70;84.30;;;;;;5034026;28;20037;-68
2021/07/22 09:23:20;;;;;;;9.73;6.30;;;22.80;83.40;;;;;;5035073;28;20029;-67
2021/07/22 09:25:48;;;;;;;10.43;6.50;;;22.90;83.00;;;;;;5035013;28;20018;-68
2021/07/22 09:28:22;;;;;;;8.45;6.55;;;22.80;82.60;;;;;;5031930;28;20174;-68
2021/07/22 09:31:13;;;;;;;8.25;6.70;;;22.90;82.80;;;;;;5033882;28;20041;-68
2021/07/22 09:33:42;;;;;;;7.17;5.47;;;23.10;83.20;;;;;;5033752;28;20041;-68
2021/07/22 09:36:20;;;;;;;9.55;6.22;;;23.20;81.20;;;;;;5033114;28;20114;-68
2021/07/22 09:38:46;;;;;;;8.63;5.28;;;23.30;80.70;;;;;;5033629;28;20029;-68
2021/07/22 09:41:22;;;;;;;7.57;5.75;;;23.40;80.30;;;;;;5034014;28;20037;-68
2021/07/22 09:43:48;;;;;;;8.15;5.72;;;23.50;79.90;;;;;;5026035;28;20375;-68
2021/07/22 09:46:15;;;;;;;10.27;6.32;;;23.70;79.60;;;;;;5030392;28;20674;-68
2021/07/22 09:49:07;;;;;;;8.65;5.85;;;23.70;77.70;;;;;;5029431;28;20022;-68
2021/07/22 09:51:32;;;;;;;8.85;6.78;;;23.70;77.60;;;;;;5030162;28;20090;-68
2021/07/22 09:54:08;;;;;;;14.05;7.45;;;23.50;76.70;;;;;;5033976;28;20509;-70
2021/07/22 09:56:38;;;;;;;8.85;6.25;;;23.50;77.50;;;;;;5029812;28;20033;-69
2021/07/22 09:59:04;;;;;;;7.57;5.22;;;23.50;78.10;;;;;;5033747;28;20468;-68
2021/07/22 10:01:32;;;;;;;7.70;5.78;;;23.80;77.80;;;;;;5031935;28;20037;-69
2021/07/22 10:03:58;;;;;;;8.07;5.70;;;24.00;77.20;;;;;;5031852;28;20029;-69
2021/07/22 10:06:24;;;;;;;8.02;6.00;;;24.20;76.50;;;;;;5031234;28;20029;-68
2021/07/22 10:08:50;;;;;;;11.82;6.13;;;24.40;75.90;;;;;;5032499;28;20468;-68
2021/07/22 10:11:17;;;;;;;8.95;5.57;;;24.40;74.50;;;;;;5033414;28;20022;-68
2021/07/22 10:13:44;;;;;;;10.15;6.88;;;24.30;74.90;;;;;;5025139;28;20044;-68
2021/07/22 10:16:12;;;;;;;8.43;6.00;;;24.30;73.10;;;;;;5027330;28;20041;-68
2021/07/22 10:18:46;;;;;;;8.73;5.47;;;24.20;73.50;;;;;;5027242;28;20439;-68
2021/07/22 10:21:12;;;;;;;7.22;5.15;;;24.20;73.50;;;;;;5031458;28;20036;-68
2021/07/22 10:23:39;;;;;;;8.32;5.15;;;24.30;73.20;;;;;;5030466;28;20029;-68
2021/07/22 10:26:05;;;;;;;6.80;4.45;;;24.50;72.40;;;;;;5030238;28;20471;-67
2021/07/22 10:28:31;;;;;;;6.72;4.28;;;24.60;71.10;;;;;;5033321;28;20025;-68
2021/07/22 10:30:57;;;;;;;6.57;5.05;;;24.70;70.50;;;;;;5033520;28;20101;-68
2021/07/22 10:33:24;;;;;;;6.60;5.55;;;24.90;69.70;;;;;;5027792;28;20026;-68
2021/07/22 10:35:54;;;;;;;7.40;5.15;;;24.90;68.30;;;;;;5033374;28;20029;-68
2021/07/22 10:38:29;;;;;;;11.50;5.70;;;24.80;67.60;;;;;;5031086;28;20059;-67
2021/07/22 10:40:59;;;;;;;9.05;6.63;;;24.80;68.40;;;;;;5029248;28;20034;-67
2021/07/22 10:43:42;;;;;;;8.00;4.53;;;24.90;67.50;;;;;;5018552;28;20392;-69
2021/07/22 10:46:21;;;;;;;8.77;5.78;;;24.90;67.30;;;;;;5027739;28;20485;-67
2021/07/22 10:48:48;;;;;;;7.68;5.35;;;25.00;66.70;;;;;;5031433;28;20057;-67
2021/07/22 10:51:14;;;;;;;7.53;5.40;;;25.00;66.80;;;;;;5031006;28;20025;-68
2021/07/22 10:53:54;;;;;;;7.88;5.97;;;25.00;66.00;;;;;;5031738;28;20523;-67
2021/07/22 10:56:22;;;;;;;7.43;5.15;;;24.90;67.10;;;;;;5033036;28;20041;-69
2021/07/22 10:58:52;;;;;;;9.82;5.35;;;25.00;67.20;;;;;;5027800;28;20399;-67
2021/07/22 11:01:42;;;;;;;9.15;5.80;;;24.90;66.50;;;;;;5031712;28;20494;-67
2021/07/22 11:04:33;;;;;;;7.60;5.78;;;24.80;66.50;;;;;;5029295;28;20052;-67
2021/07/22 11:06:59;;;;;;;8.55;4.95;;;24.60;67.00;;;;;;5025367;28;20076;-67
2021/07/22 11:09:50;;;;;;;8.77;5.25;;;24.50;67.80;;;;;;5013185;28;20025;-67
2021/07/22 11:12:38;;;;;;;10.40;5.93;;;24.40;68.60;;;;;;5014383;28;20048;-67
2021/07/22 11:15:17;;;;;;;7.95;5.20;;;24.40;68.30;;;;;;5011927;28;20032;-67
2021/07/22 11:17:47;;;;;;;6.53;4.88;;;24.50;68.30;;;;;;5017775;28;20037;-67
2021/07/22 11:20:22;;;;;;;9.02;6.00;;;24.70;67.40;;;;;;5016561;28;20388;-67
2021/07/22 11:22:50;;;;;;;6.00;5.13;;;24.70;66.40;;;;;;5029947;28;20032;-67
2021/07/22 11:25:17;;;;;;;8.32;5.35;;;24.70;66.20;;;;;;5032375;28;20464;-67
2021/07/22 11:27:47;;;;;;;8.88;5.35;;;24.70;66.20;;;;;;5021416;28;20108;-67
2021/07/22 11:30:14;;;;;;;8.20;6.13;;;24.60;67.00;;;;;;5026576;28;20100;-69
2021/07/22 11:32:40;;;;;;;7.45;5.30;;;24.80;66.70;;;;;;5028796;28;20387;-67
2021/07/22 11:35:06;;;;;;;9.55;6.00;;;25.00;66.40;;;;;;5032032;28;20300;-67
2021/07/22 11:37:32;;;;;;;7.50;5.70;;;25.30;65.60;;;;;;5030711;28;20472;-67
2021/07/22 11:39:57;;;;;;;7.85;5.50;;;25.40;64.10;;;;;;5032550;28;20079;-68
2021/07/22 11:42:23;;;;;;;7.55;5.20;;;25.70;63.80;;;;;;5031227;28;20033;-67
2021/07/22 11:45:15;;;;;;;6.00;5.03;;;25.80;63.30;;;;;;5029691;28;20025;-67
2021/07/22 11:47:41;;;;;;;7.82;5.40;;;26.00;62.90;;;;;;5022224;28;20042;-68
2021/07/22 11:50:07;;;;;;;21.27;5.88;;;26.10;62.60;;;;;;5032540;28;20053;-68
2021/07/22 11:52:33;;;;;;;8.60;5.03;;;26.20;63.00;;;;;;5031512;28;20468;-67
2021/07/22 11:55:09;;;;;;;6.30;4.20;;;26.30;62.60;;;;;;5032728;28;20100;-67
2021/07/22 11:57:46;;;;;;;9.02;5.43;;;26.40;61.20;;;;;;5030828;28;20022;-68
2021/07/22 12:00:22;;;;;;;6.85;5.65;;;26.20;61.20;;;;;;5021887;28;20112;-67
2021/07/22 12:02:55;;;;;;;7.78;5.25;;;26.10;61.10;;;;;;5028774;28;20025;-67
2021/07/22 12:05:27;;;;;;;8.50;4.82;;;25.70;60.80;;;;;;5030598;28;20264;-67
2021/07/22 12:07:56;;;;;;;7.30;4.50;;;25.50;61.90;;;;;;5031105;28;20472;-67
2021/07/22 12:10:29;;;;;;;4.28;3.70;;;25.30;61.90;;;;;;5031365;28;20152;-67
2021/07/22 12:13:08;;;;;;;5.78;4.32;;;25.30;63.00;;;;;;5028087;28;20042;-67
2021/07/22 12:15:37;;;;;;;6.97;5.00;;;25.30;62.50;;;;;;5018360;28;20041;-67
2021/07/22 12:18:04;;;;;;;7.13;4.85;;;25.40;62.60;;;;;;5017699;28;20033;-67
2021/07/22 12:20:30;;;;;;;8.13;4.50;;;25.70;63.10;;;;;;5031582;28;20065;-68
2021/07/22 12:22:56;;;;;;;5.35;4.63;;;25.80;61.70;;;;;;5030914;28;20040;-67
2021/07/22 12:25:23;;;;;;;7.03;4.82;;;25.80;60.90;;;;;;5030445;28;20030;-67
2021/07/22 12:27:49;;;;;;;8.07;4.35;;;25.90;61.00;;;;;;5027232;28;20026;-68
2021/07/22 12:30:33;;;;;;;6.75;4.45;;;26.10;61.20;;;;;;5025130;28;20022;-68
2021/07/22 12:33:04;;;;;;;6.80;4.70;;;26.10;60.70;;;;;;5026875;28;20460;-68